Terminal Aerodrome Forecast
Issued by NWS Portland, OR

Home | Current Version | Previous Version | Text Only | Print | Product List | Glossary On
Versions: 1 2 3 4 5 6 7 8 9 10 11 12 13 14 15 16 17
000
FTUS46 KPQR 182328
TAFSLE
TAF
KSLE 182328Z 1900/1924 02005KT P6SM BKN200
     FM191500 17010KT P6SM -RA BKN050 OVC100
     FM192200 21015G25KT P6SM BKN050=

USA.gov is the U.S. government's official web portal to all federal, state and local government web resources and services.